Time;durP1;ratioP1;P1;durP2;ratioP2;P2;SDS_P1;SDS_P2;PMS_P1;PMS_P2;Temp;Humidity;BMP_temperature;BMP_pressure;BME280_temperature;BME280_humidity;BME280_pressure;Samples;Min_cycle;Max_cycle;Signal;HPM_P1;HPM_P2
2022/12/15 00:42:37;;;;;;;34.10;22.42;;;;;;;;;;10091811;28;20046;-68
2022/12/15 00:47:33;;;;;;;32.92;21.80;;;;;;;;;;10092616;28;20680;-67
2022/12/15 01:24:01;;;;;;;27.50;18.40;;;;;;;;;;10086441;28;20066;-68
2022/12/15 01:28:58;;;;;;;31.17;19.58;;;;;;;;;;10086825;28;20078;-68
2022/12/15 01:33:54;;;;;;;31.73;19.88;;;;;;;;;;10096842;28;20054;-68
2022/12/15 01:38:50;;;;;;;29.70;19.23;;;;;;;;;;10095810;28;20487;-67
2022/12/15 01:43:50;;;;;;;28.05;18.73;;;;;;;;;;10096191;28;20529;-68
2022/12/15 01:48:48;;;;;;;30.05;19.02;;;;;;;;;;10089906;28;20046;-67
2022/12/15 01:53:52;;;;;;;28.55;19.73;;;;;;;;;;10104987;28;20090;-67
2022/12/15 01:58:50;;;;;;;29.38;19.70;;;;;;;;;;10102658;28;20146;-68
2022/12/15 02:03:46;;;;;;;27.67;19.55;;;;;;;;;;10091425;28;20072;-67
2022/12/15 02:08:44;;;;;;;35.17;20.50;;;;;;;;;;10090605;28;20137;-67
2022/12/15 02:13:46;;;;;;;28.02;20.02;;;;;;;;;;10089747;28;20058;-68
2022/12/15 02:18:54;;;;;;;32.10;21.70;;;;;;;;;;10101508;28;20066;-68
2022/12/15 02:24:18;;;;;;;29.10;19.55;;;;;;;;;;10096611;28;20500;-67
2022/12/15 02:29:33;;;;;;;30.42;21.58;;;;;;;;;;10103720;28;20128;-67
2022/12/15 02:34:35;;;;;;;28.83;20.63;;;;;;;;;;10103108;28;20500;-67
2022/12/15 02:39:31;;;;;;;31.10;20.85;;;;;;;;;;10104539;28;20035;-67
2022/12/15 02:44:31;;;;;;;30.23;20.13;;;;;;;;;;10102788;28;20046;-67
2022/12/15 02:49:39;;;;;;;25.40;18.88;;;;;;;;;;10102025;28;20049;-66
2022/12/15 02:54:51;;;;;;;25.58;19.08;;;;;;;;;;10104817;28;20047;-68
2022/12/15 02:59:54;;;;;;;27.25;20.60;;;;;;;;;;10099169;28;20035;-68
2022/12/15 03:04:50;;;;;;;27.45;19.95;;;;;;;;;;10099180;28;20047;-68
2022/12/15 03:09:46;;;;;;;23.05;18.60;;;;;;;;;;10097895;28;20139;-67
2022/12/15 03:14:43;;;;;;;26.88;20.08;;;;;;;;;;10097402;28;20047;-67
2022/12/15 03:19:39;;;;;;;31.98;22.15;;;;;;;;;;10110485;28;20046;-67
2022/12/15 03:24:35;;;;;;;26.27;19.77;;;;;;;;;;10099260;28;20134;-68
2022/12/15 03:29:31;;;;;;;23.27;19.88;;;;;;;;;;10118486;28;20061;-68
2022/12/15 03:34:28;;;;;;;26.33;21.08;;;;;;;;;;10097912;28;20043;-68
2022/12/15 03:39:24;;;;;;;34.60;20.92;;;;;;;;;;10100157;28;20066;-67
2022/12/15 03:44:20;;;;;;;26.75;20.77;;;;;;;;;;10144774;23;20416;-68
2022/12/15 03:49:16;;;;;;;29.60;21.70;;;;;;;;;;10111732;28;20133;-68
2022/12/15 03:54:13;;;;;;;27.20;21.42;;;;;;;;;;10122738;28;20043;-69
2022/12/15 03:59:09;;;;;;;28.63;22.23;;;;;;;;;;10111079;28;20039;-69
2022/12/15 04:04:05;;;;;;;26.83;21.48;;;;;;;;;;10105696;28;20457;-68
2022/12/15 04:09:01;;;;;;;29.02;22.88;;;;;;;;;;10122269;28;20042;-70
2022/12/15 04:13:57;;;;;;;30.95;22.58;;;;;;;;;;10110710;28;20833;-70
2022/12/15 05:32:30;;;;;;;37.00;30.83;;;;;;;;;;10094408;28;20066;-70
2022/12/15 05:37:26;;;;;;;33.28;30.02;;;;;;;;;;10097653;28;20059;-70
2022/12/15 05:42:23;;;;;;;34.25;30.88;;;;;;;;;;10101883;28;20584;-70
2022/12/15 05:47:19;;;;;;;36.17;32.13;;;;;;;;;;10100292;28;20046;-73
2022/12/15 05:52:16;;;;;;;35.35;31.65;;;;;;;;;;10113949;28;20652;-71
2022/12/15 05:57:12;;;;;;;35.55;31.52;;;;;;;;;;10091829;28;20133;-69
2022/12/15 06:02:08;;;;;;;36.65;32.85;;;;;;;;;;10103021;28;20047;-72
2022/12/15 06:07:05;;;;;;;39.70;35.55;;;;;;;;;;10111510;28;20042;-72
2022/12/15 06:12:01;;;;;;;36.97;33.17;;;;;;;;;;10099433;28;20082;-72
2022/12/15 06:16:58;;;;;;;39.00;35.30;;;;;;;;;;10104008;28;20077;-72
2022/12/15 06:21:55;;;;;;;41.22;34.25;;;;;;;;;;10116877;28;20534;-72
2022/12/15 06:26:51;;;;;;;39.70;35.85;;;;;;;;;;10113917;28;20425;-71
2022/12/15 06:31:48;;;;;;;39.50;35.70;;;;;;;;;;10111482;28;20133;-72
2022/12/15 06:36:44;;;;;;;38.53;34.80;;;;;;;;;;10112909;28;20054;-72
2022/12/15 06:41:41;;;;;;;38.80;35.17;;;;;;;;;;10107218;28;20050;-72
2022/12/15 06:46:37;;;;;;;44.42;35.10;;;;;;;;;;10111853;28;20050;-72
2022/12/15 06:51:34;;;;;;;39.15;35.08;;;;;;;;;;10131145;28;20058;-71
2022/12/15 06:56:32;;;;;;;37.53;33.85;;;;;;;;;;10128041;28;20578;-71
2022/12/15 07:01:30;;;;;;;38.58;34.75;;;;;;;;;;10119962;28;20528;-71
2022/12/15 07:06:30;;;;;;;38.45;34.40;;;;;;;;;;10106326;28;20046;-70
2022/12/15 07:11:27;;;;;;;37.50;33.75;;;;;;;;;;10111874;28;20058;-71
2022/12/15 07:16:23;;;;;;;37.28;33.65;;;;;;;;;;10112200;28;20049;-71
2022/12/15 07:21:20;;;;;;;38.60;34.65;;;;;;;;;;10108031;28;20058;-71
2022/12/15 07:26:16;;;;;;;36.80;33.17;;;;;;;;;;10111722;28;21129;-70
2022/12/15 07:31:12;;;;;;;36.92;33.17;;;;;;;;;;10101804;28;20054;-70
2022/12/15 07:36:09;;;;;;;38.00;33.58;;;;;;;;;;10105950;28;20549;-67
2022/12/15 07:41:06;;;;;;;36.65;33.00;;;;;;;;;;10110551;28;20045;-71
2022/12/15 07:46:03;;;;;;;42.63;34.72;;;;;;;;;;10113120;28;20117;-71
2022/12/15 07:51:04;;;;;;;36.90;33.15;;;;;;;;;;10101052;28;20527;-71
2022/12/15 07:56:10;;;;;;;37.17;33.45;;;;;;;;;;10110585;28;20050;-71
2022/12/15 08:01:08;;;;;;;37.83;33.45;;;;;;;;;;10113702;28;20043;-71
2022/12/15 08:06:10;;;;;;;36.60;32.17;;;;;;;;;;10116302;28;20046;-70
2022/12/15 08:11:08;;;;;;;36.60;31.98;;;;;;;;;;10121211;28;20074;-71
2022/12/15 08:16:05;;;;;;;35.20;30.75;;;;;;;;;;10118309;28;20039;-71
2022/12/15 08:21:05;;;;;;;35.55;31.30;;;;;;;;;;10115925;28;20453;-70
2022/12/15 08:26:06;;;;;;;36.25;30.45;;;;;;;;;;10125453;28;20047;-73
2022/12/15 08:31:03;;;;;;;38.03;32.20;;;;;;;;;;10112703;28;20133;-71
2022/12/15 08:36:01;;;;;;;34.65;30.73;;;;;;;;;;10111328;28;20565;-71
2022/12/15 08:41:05;;;;;;;34.35;30.73;;;;;;;;;;10128927;28;20059;-71
2022/12/15 08:46:04;;;;;;;36.30;30.48;;;;;;;;;;10122871;28;20093;-71
2022/12/15 08:51:01;;;;;;;37.00;31.55;;;;;;;;;;10106441;28;20039;-70
2022/12/15 08:56:04;;;;;;;40.83;30.60;;;;;;;;;;10108202;28;20142;-70
2022/12/15 09:01:05;;;;;;;37.90;32.38;;;;;;;;;;10120814;28;20034;-69
2022/12/15 09:06:06;;;;;;;35.15;31.38;;;;;;;;;;10107870;28;20532;-70
2022/12/15 09:11:04;;;;;;;33.58;30.42;;;;;;;;;;10109548;28;20089;-70
2022/12/15 09:16:02;;;;;;;34.25;30.13;;;;;;;;;;10100601;28;20558;-70
2022/12/15 09:21:06;;;;;;;32.42;28.95;;;;;;;;;;10116056;28;20416;-70
2022/12/15 09:26:04;;;;;;;32.63;28.85;;;;;;;;;;10109677;28;20677;-70
2022/12/15 09:31:01;;;;;;;30.42;27.25;;;;;;;;;;10107352;28;20047;-70
2022/12/15 09:35:58;;;;;;;30.27;26.63;;;;;;;;;;10105613;28;20050;-70
2022/12/15 09:40:54;;;;;;;29.95;24.25;;;;;;;;;;10108893;28;20061;-70
2022/12/15 09:45:55;;;;;;;29.70;26.25;;;;;;;;;;10101556;28;20048;-70
2022/12/15 09:50:52;;;;;;;34.78;25.80;;;;;;;;;;10106005;28;20089;-70
2022/12/15 09:55:52;;;;;;;38.10;25.23;;;;;;;;;;10105807;28;20130;-70
2022/12/15 10:00:54;;;;;;;29.30;25.00;;;;;;;;;;10100750;28;20079;-70
2022/12/15 10:06:07;;;;;;;27.52;24.63;;;;;;;;;;10117338;28;20045;-70
2022/12/15 10:11:14;;;;;;;;;;;;;;;;;;10120955;28;20043;-70
2022/12/15 10:16:29;;;;;;;28.85;25.10;;;;;;;;;;10105748;28;20052;-70
2022/12/15 10:21:27;;;;;;;32.67;27.77;;;;;;;;;;10112644;28;20050;-70
2022/12/15 10:26:25;;;;;;;32.85;29.33;;;;;;;;;;10113308;28;20046;-70
2022/12/15 10:31:35;;;;;;;33.50;30.25;;;;;;;;;;10107447;28;20069;-70
2022/12/15 10:36:31;;;;;;;33.95;30.67;;;;;;;;;;10110633;28;20050;-70
2022/12/15 10:41:30;;;;;;;36.08;32.65;;;;;;;;;;10117751;28;20492;-70
2022/12/15 10:46:28;;;;;;;37.33;33.75;;;;;;;;;;10122319;28;20043;-70
2022/12/15 10:51:29;;;;;;;36.45;32.75;;;;;;;;;;10119266;28;20532;-67
2022/12/15 10:56:27;;;;;;;36.33;32.75;;;;;;;;;;10105858;28;20047;-67
2022/12/15 11:01:43;;;;;;;36.33;32.95;;;;;;;;;;10114377;28;20412;-68
2022/12/15 11:06:42;;;;;;;40.60;36.38;;;;;;;;;;10114955;28;20836;-67
2022/12/15 11:17:05;;;;;;;35.53;31.93;;;;;;;;;;10107419;28;20073;-68
2022/12/15 11:22:04;;;;;;;34.53;31.48;;;;;;;;;;10110173;28;20048;-66
2022/12/15 11:27:20;;;;;;;30.55;27.63;;;;;;;;;;10108095;28;20067;-66
2022/12/15 11:32:18;;;;;;;27.63;24.98;;;;;;;;;;10096290;28;20051;-67
2022/12/15 11:37:33;;;;;;;26.77;24.10;;;;;;;;;;10101858;28;20041;-66
2022/12/15 11:42:32;;;;;;;25.42;23.02;;;;;;;;;;10103529;28;20049;-67
2022/12/15 11:47:47;;;;;;;25.77;20.40;;;;;;;;;;10104188;28;20081;-66
2022/12/15 11:52:59;;;;;;;22.42;20.17;;;;;;;;;;10108085;28;20047;-67
2022/12/15 11:57:58;;;;;;;21.55;18.95;;;;;;;;;;10103126;28;20421;-68
2022/12/15 12:03:12;;;;;;;21.55;19.38;;;;;;;;;;10107217;28;20043;-67
2022/12/15 12:08:23;;;;;;;21.08;18.95;;;;;;;;;;10111423;28;20074;-67
2022/12/15 12:13:29;;;;;;;23.40;21.23;;;;;;;;;;10109881;28;20043;-67
2022/12/15 12:18:45;;;;;;;23.60;21.02;;;;;;;;;;10104590;28;20048;-67
2022/12/15 12:23:51;;;;;;;21.27;19.25;;;;;;;;;;10109136;28;20046;-67
2022/12/15 12:28:56;;;;;;;22.77;19.27;;;;;;;;;;10108974;28;20047;-67
2022/12/15 12:33:54;;;;;;;21.70;19.48;;;;;;;;;;10105392;28;20047;-66
2022/12/15 12:38:52;;;;;;;20.73;18.58;;;;;;;;;;10106143;28;20043;-67
2022/12/15 12:43:54;;;;;;;21.67;19.40;;;;;;;;;;10108389;28;20058;-67
2022/12/15 12:48:55;;;;;;;22.35;18.67;;;;;;;;;;10107524;28;20043;-66
2022/12/15 12:53:51;;;;;;;19.92;18.02;;;;;;;;;;10103736;28;20497;-67
2022/12/15 12:58:47;;;;;;;29.02;18.60;;;;;;;;;;10107790;28;20074;-67
2022/12/15 13:03:44;;;;;;;20.27;18.35;;;;;;;;;;10101000;28;20105;-67
2022/12/15 13:08:47;;;;;;;22.58;18.50;;;;;;;;;;10101389;28;20046;-67
2022/12/15 13:13:46;;;;;;;19.67;17.67;;;;;;;;;;10099373;28;20058;-67
2022/12/15 13:19:05;;;;;;;20.23;18.27;;;;;;;;;;10102624;28;20039;-67
2022/12/15 13:24:02;;;;;;;19.00;17.05;;;;;;;;;;10103833;28;20081;-67
2022/12/15 13:28:59;;;;;;;20.20;17.17;;;;;;;;;;10103082;28;20134;-67
2022/12/15 13:33:57;;;;;;;19.38;16.77;;;;;;;;;;10105859;28;20049;-67
2022/12/15 13:38:54;;;;;;;19.00;17.00;;;;;;;;;;10105867;28;20046;-66
2022/12/15 13:43:52;;;;;;;16.55;14.95;;;;;;;;;;10107514;28;20042;-66
2022/12/15 13:49:05;;;;;;;18.20;16.30;;;;;;;;;;10102322;28;20127;-67
2022/12/15 13:54:10;;;;;;;18.35;15.27;;;;;;;;;;10100668;28;20047;-66
2022/12/15 13:59:24;;;;;;;20.67;15.88;;;;;;;;;;10100211;28;20074;-67
2022/12/15 14:04:20;;;;;;;18.52;15.93;;;;;;;;;;10096941;28;20055;-67
2022/12/15 14:09:22;;;;;;;21.05;17.95;;;;;;;;;;10107179;28;20043;-66
2022/12/15 14:14:21;;;;;;;20.50;16.47;;;;;;;;;;10103645;28;20054;-67
2022/12/15 14:19:18;;;;;;;17.83;15.95;;;;;;;;;;10104967;28;20139;-66
2022/12/15 14:24:25;;;;;;;18.83;16.75;;;;;;;;;;10111282;28;20054;-67
2022/12/15 14:29:35;;;;;;;17.98;15.80;;;;;;;;;;10109370;28;20481;-66
2022/12/15 14:34:32;;;;;;;21.25;17.23;;;;;;;;;;10110704;28;20714;-65
2022/12/15 14:39:32;;;;;;;17.65;16.00;;;;;;;;;;10110234;28;20043;-66
2022/12/15 14:44:28;;;;;;;20.35;15.35;;;;;;;;;;10104591;28;20078;-66
2022/12/15 14:49:39;;;;;;;18.08;16.30;;;;;;;;;;10108018;28;20456;-66
2022/12/15 14:54:36;;;;;;;17.52;16.02;;;;;;;;;;10107478;28;20138;-66
2022/12/15 14:59:34;;;;;;;28.98;16.65;;;;;;;;;;10104827;28;20042;-65
2022/12/15 15:04:31;;;;;;;21.23;17.20;;;;;;;;;;10101500;28;20065;-66
2022/12/15 15:09:27;;;;;;;20.40;17.35;;;;;;;;;;10087377;28;20051;-67
2022/12/15 15:14:28;;;;;;;21.15;17.27;;;;;;;;;;10110233;28;20050;-67
2022/12/15 15:19:24;;;;;;;19.92;17.30;;;;;;;;;;10117668;28;20038;-67
2022/12/15 15:24:23;;;;;;;19.30;17.45;;;;;;;;;;10114291;28;20046;-67
2022/12/15 15:29:36;;;;;;;20.27;17.25;;;;;;;;;;10120199;28;20129;-66
2022/12/15 15:34:33;;;;;;;;;;;;;;;;;;10101009;28;20045;-67
2022/12/15 15:39:29;;;;;;;19.55;17.52;;;;;;;;;;10109435;28;19929;-66
2022/12/15 15:44:26;;;;;;;21.23;16.27;;;;;;;;;;10115497;28;20654;-66
2022/12/15 15:49:23;;;;;;;18.00;16.35;;;;;;;;;;10117996;28;20062;-67
2022/12/15 15:54:22;;;;;;;18.63;16.67;;;;;;;;;;10116531;28;20062;-66
2022/12/15 15:59:23;;;;;;;18.35;16.40;;;;;;;;;;10119842;28;20116;-67
2022/12/15 16:04:20;;;;;;;19.60;17.57;;;;;;;;;;10113477;28;20058;-67
2022/12/15 16:09:16;;;;;;;18.95;17.00;;;;;;;;;;10111603;28;20493;-67
2022/12/15 16:14:13;;;;;;;19.05;17.05;;;;;;;;;;10122526;28;20049;-66
2022/12/15 16:19:11;;;;;;;21.23;16.80;;;;;;;;;;10113017;28;20041;-67
2022/12/15 16:24:08;;;;;;;17.75;15.88;;;;;;;;;;10118670;28;20409;-67
2022/12/15 16:29:11;;;;;;;18.35;16.40;;;;;;;;;;10104468;28;20054;-67
2022/12/15 16:34:07;;;;;;;18.95;17.13;;;;;;;;;;10115109;28;20057;-67
2022/12/15 16:39:09;;;;;;;23.38;18.55;;;;;;;;;;10107042;28;20038;-66
2022/12/15 16:44:09;;;;;;;18.92;16.85;;;;;;;;;;10104462;28;20133;-67
2022/12/15 16:49:06;;;;;;;19.67;17.55;;;;;;;;;;10106366;28;20074;-69
2022/12/15 16:54:03;;;;;;;25.15;17.73;;;;;;;;;;10102385;28;20042;-68
2022/12/15 16:58:59;;;;;;;23.70;18.13;;;;;;;;;;10115461;28;20133;-67
2022/12/15 17:04:15;;;;;;;19.65;17.48;;;;;;;;;;10116723;28;20051;-67
2022/12/15 17:09:16;;;;;;;20.27;16.75;;;;;;;;;;10120975;28;20141;-67
2022/12/15 17:14:13;;;;;;;22.33;17.55;;;;;;;;;;10111766;28;20121;-66
2022/12/15 17:19:09;;;;;;;21.27;17.15;;;;;;;;;;10130376;28;20070;-66
2022/12/15 17:24:10;;;;;;;20.30;17.80;;;;;;;;;;10119658;28;20085;-67
2022/12/15 17:29:07;;;;;;;21.25;17.85;;;;;;;;;;10117894;28;20057;-67
2022/12/15 17:34:33;;;;;;;22.45;19.08;;;;;;;;;;10116638;28;20477;-68
2022/12/15 17:39:31;;;;;;;22.17;19.02;;;;;;;;;;10108303;28;20090;-67
2022/12/15 17:44:29;;;;;;;19.63;17.17;;;;;;;;;;10113313;28;20051;-69
2022/12/15 17:49:29;;;;;;;22.42;18.48;;;;;;;;;;10120006;28;20129;-67
2022/12/15 17:54:32;;;;;;;20.45;18.25;;;;;;;;;;10113350;28;20049;-67
2022/12/15 17:59:31;;;;;;;21.80;18.88;;;;;;;;;;10129667;28;20043;-67
2022/12/15 18:04:27;;;;;;;22.65;19.40;;;;;;;;;;10143442;28;20133;-67
2022/12/15 18:09:24;;;;;;;23.80;21.35;;;;;;;;;;10105525;28;20050;-67
2022/12/15 18:14:21;;;;;;;26.30;21.92;;;;;;;;;;10104321;28;20141;-67
2022/12/15 18:19:17;;;;;;;25.92;21.48;;;;;;;;;;10115889;28;20047;-70
2022/12/15 18:24:15;;;;;;;24.60;22.00;;;;;;;;;;10104054;28;20043;-70
2022/12/15 18:29:13;;;;;;;26.08;21.85;;;;;;;;;;10104716;28;20042;-70
2022/12/15 18:34:11;;;;;;;26.38;21.40;;;;;;;;;;10115068;28;20125;-69
2022/12/15 18:39:14;;;;;;;23.85;21.25;;;;;;;;;;10123445;28;20043;-69
2022/12/15 18:44:17;;;;;;;27.90;21.38;;;;;;;;;;10107675;28;20062;-70
2022/12/15 18:49:14;;;;;;;24.48;21.90;;;;;;;;;;10105583;28;20050;-69
2022/12/15 18:54:18;;;;;;;24.95;22.35;;;;;;;;;;10123661;28;20071;-70
2022/12/15 18:59:16;;;;;;;24.23;21.73;;;;;;;;;;10105463;28;20449;-70
2022/12/15 19:04:12;;;;;;;28.98;23.15;;;;;;;;;;10104011;28;20042;-70
2022/12/15 19:09:16;;;;;;;25.48;22.70;;;;;;;;;;10103285;28;20055;-70
2022/12/15 19:14:38;;;;;;;32.05;24.55;;;;;;;;;;10104152;28;20497;-71
2022/12/15 19:24:53;;;;;;;29.95;22.80;;;;;;;;;;10110639;28;20118;-69
2022/12/15 19:29:49;;;;;;;30.40;23.75;;;;;;;;;;10110550;28;20483;-69
2022/12/15 19:34:46;;;;;;;26.52;23.35;;;;;;;;;;10108561;28;20097;-66
2022/12/15 19:39:42;;;;;;;28.90;23.55;;;;;;;;;;10109442;28;20043;-66
2022/12/15 19:44:38;;;;;;;28.73;23.70;;;;;;;;;;10122730;28;20575;-66
2022/12/15 19:49:35;;;;;;;30.80;23.85;;;;;;;;;;10105988;28;20082;-66
2022/12/15 19:54:31;;;;;;;27.27;21.45;;;;;;;;;;10095799;28;20047;-65
2022/12/15 19:59:27;;;;;;;32.83;22.95;;;;;;;;;;10124782;28;20038;-66
2022/12/15 20:04:24;;;;;;;28.40;23.60;;;;;;;;;;10091781;28;20043;-66
2022/12/15 20:09:20;;;;;;;28.15;23.10;;;;;;;;;;10107754;28;20415;-67
2022/12/15 20:14:16;;;;;;;30.27;23.17;;;;;;;;;;10116868;28;20039;-66
2022/12/15 20:19:12;;;;;;;32.58;24.67;;;;;;;;;;10094363;28;20061;-66
2022/12/15 20:24:12;;;;;;;34.15;24.95;;;;;;;;;;10112935;28;20046;-66
2022/12/15 20:29:23;;;;;;;28.48;23.58;;;;;;;;;;10106294;28;20248;-66
2022/12/15 20:34:20;;;;;;;28.38;23.80;;;;;;;;;;10103218;28;20162;-66
2022/12/15 20:39:19;;;;;;;31.17;24.05;;;;;;;;;;10100035;28;20060;-66
2022/12/15 20:44:15;;;;;;;29.25;26.00;;;;;;;;;;10131324;28;20048;-66
2022/12/15 20:49:15;;;;;;;31.88;25.02;;;;;;;;;;10120295;28;20137;-65
2022/12/15 20:54:16;;;;;;;35.20;24.95;;;;;;;;;;10126521;28;20569;-66
2022/12/15 20:59:13;;;;;;;34.35;26.45;;;;;;;;;;10119792;28;20453;-70
2022/12/15 21:04:19;;;;;;;27.33;23.58;;;;;;;;;;10125021;28;20050;-70
2022/12/15 21:09:15;;;;;;;33.78;24.65;;;;;;;;;;10112006;28;20147;-70
2022/12/15 21:14:19;;;;;;;32.42;25.50;;;;;;;;;;10097105;28;20053;-70
2022/12/15 21:19:15;;;;;;;31.83;25.98;;;;;;;;;;10111343;28;20070;-70
2022/12/15 21:24:32;;;;;;;31.65;25.48;;;;;;;;;;10095547;28;20043;-70
2022/12/15 21:29:28;;;;;;;29.17;26.00;;;;;;;;;;10090172;28;20457;-70
2022/12/15 21:34:25;;;;;;;31.50;26.13;;;;;;;;;;10101568;28;20681;-70
2022/12/15 21:39:23;;;;;;;30.92;26.65;;;;;;;;;;10097616;28;20051;-70
2022/12/15 21:44:19;;;;;;;30.02;26.75;;;;;;;;;;10096594;28;20145;-70
2022/12/15 21:49:19;;;;;;;32.28;27.35;;;;;;;;;;10100461;28;20086;-70
2022/12/15 21:54:17;;;;;;;32.25;27.25;;;;;;;;;;10101891;28;20071;-71
2022/12/15 21:59:14;;;;;;;33.90;28.08;;;;;;;;;;10098797;28;20046;-71
2022/12/15 22:04:15;;;;;;;35.03;28.27;;;;;;;;;;10103780;28;20047;-70
2022/12/15 22:09:12;;;;;;;31.37;25.93;;;;;;;;;;10097342;28;20551;-70
2022/12/15 22:14:18;;;;;;;33.55;26.02;;;;;;;;;;10100597;28;20790;-70
2022/12/15 22:19:14;;;;;;;32.85;27.50;;;;;;;;;;10107462;28;20130;-70
2022/12/15 22:24:10;;;;;;;32.83;27.95;;;;;;;;;;10110403;28;20043;-70
2022/12/15 22:29:18;;;;;;;32.55;28.92;;;;;;;;;;10097118;28;20058;-70
2022/12/15 22:34:15;;;;;;;37.90;30.13;;;;;;;;;;10110784;28;20050;-71
2022/12/15 22:39:13;;;;;;;37.70;29.20;;;;;;;;;;10104593;28;20043;-71
2022/12/15 22:44:15;;;;;;;35.17;28.48;;;;;;;;;;10111112;28;20050;-72
2022/12/15 22:49:13;;;;;;;31.65;28.20;;;;;;;;;;10117701;28;20165;-71
2022/12/15 22:54:19;;;;;;;32.92;29.38;;;;;;;;;;10124522;28;20138;-71
2022/12/15 22:59:19;;;;;;;31.27;27.95;;;;;;;;;;10111791;28;20047;-72
2022/12/15 23:04:15;;;;;;;33.17;28.45;;;;;;;;;;10116629;28;20043;-73
2022/12/15 23:09:11;;;;;;;33.67;29.95;;;;;;;;;;10112216;28;20133;-72
2022/12/15 23:14:10;;;;;;;35.40;29.27;;;;;;;;;;10139472;28;20065;-72
2022/12/15 23:19:06;;;;;;;34.08;30.30;;;;;;;;;;10135137;28;20546;-72
2022/12/15 23:24:03;;;;;;;34.28;30.08;;;;;;;;;;10113298;28;20043;-73
2022/12/15 23:29:00;;;;;;;33.25;29.80;;;;;;;;;;10113950;28;20061;-74
2022/12/15 23:33:56;;;;;;;32.53;27.67;;;;;;;;;;10123488;28;20047;-73
2022/12/15 23:38:54;;;;;;;35.10;29.40;;;;;;;;;;10120197;28;20117;-73
2022/12/15 23:43:50;;;;;;;39.05;28.90;;;;;;;;;;10119176;28;20050;-72
2022/12/15 23:48:47;;;;;;;32.20;28.02;;;;;;;;;;10114475;28;20394;-72
2022/12/15 23:53:44;;;;;;;36.92;27.02;;;;;;;;;;10129342;28;20655;-72
2022/12/15 23:58:41;;;;;;;35.55;27.45;;;;;;;;;;10118724;28;20050;-72
